Time;durP1;ratioP1;P1;durP2;ratioP2;P2;SDS_P1;SDS_P2;PMS_P1;PMS_P2;Temp;Humidity;BMP_temperature;BMP_pressure;BME280_temperature;BME280_humidity;BME280_pressure;Samples;Min_cycle;Max_cycle;Signal;HPM_P1;HPM_P2
2023/10/14 00:02:42;;;;;;;13.47;8.10;;;;;19.60;99376.00;;;;5023294;28;20743;-71
2023/10/14 00:05:28;;;;;;;18.80;8.63;;;;;19.60;99383.00;;;;5023002;28;20701;-72
2023/10/14 00:08:16;;;;;;;14.60;7.97;;;;;19.60;99366.00;;;;5023689;28;20662;-70
2023/10/14 00:11:07;;;;;;;16.13;8.13;;;;;19.50;99364.00;;;;5026156;28;20924;-72
2023/10/14 00:13:53;;;;;;;14.07;7.87;;;;;19.60;99372.00;;;;5024572;28;20241;-70
2023/10/14 00:16:41;;;;;;;13.87;8.27;;;;;19.60;99364.00;;;;5018169;28;20242;-70
2023/10/14 00:19:28;;;;;;;14.23;8.33;;;;;19.60;99373.00;;;;5022894;28;20231;-74
2023/10/14 00:22:15;;;;;;;14.67;8.03;;;;;19.70;99370.00;;;;5019947;28;20221;-70
2023/10/14 00:25:09;;;;;;;15.60;7.67;;;;;19.60;99358.00;;;;5022137;28;20242;-71
2023/10/14 00:27:56;;;;;;;17.53;7.27;;;;;19.60;99380.00;;;;5025363;28;20988;-72
2023/10/14 00:30:42;;;;;;;18.53;8.23;;;;;19.50;99391.00;;;;5021952;28;20333;-73
2023/10/14 00:33:28;;;;;;;14.03;7.63;;;;;19.50;99419.00;;;;5016150;28;20255;-73
2023/10/14 00:36:16;;;;;;;20.47;8.60;;;;;19.30;99427.00;;;;5023764;28;20613;-71
2023/10/14 00:39:12;;;;;;;8.20;4.70;;;;;18.80;99530.00;;;;5017381;28;20766;-72
2023/10/14 00:41:59;;;;;;;7.23;2.50;;;;;18.00;99505.00;;;;5018069;28;20699;-73
2023/10/14 00:44:46;;;;;;;5.60;2.03;;;;;17.50;99505.00;;;;5017987;28;21014;-73
2023/10/14 00:47:34;;;;;;;4.67;1.53;;;;;16.90;99507.00;;;;5034921;28;20237;-72
2023/10/14 00:50:33;;;;;;;2.50;1.13;;;;;16.60;99520.00;;;;5019475;28;20229;-71
2023/10/14 00:53:20;;;;;;;1.33;1.10;;;;;16.40;99533.00;;;;5007735;28;20275;-68
2023/10/14 00:56:11;;;;;;;1.97;1.20;;;;;16.10;99547.00;;;;5020352;28;20284;-71
2023/10/14 00:59:03;;;;;;;1.80;0.83;;;;;16.10;99555.00;;;;5022675;28;20304;-72
2023/10/14 01:01:55;;;;;;;1.83;1.00;;;;;16.10;99590.00;;;;5021183;28;20230;-70
2023/10/14 01:04:54;;;;;;;2.00;1.33;;;;;15.90;99615.00;;;;5023765;28;20232;-72
2023/10/14 01:07:40;;;;;;;2.27;1.13;;;;;15.90;99606.00;;;;5020103;28;20303;-72
2023/10/14 01:10:28;;;;;;;3.67;1.00;;;;;15.80;99618.00;;;;5024942;28;20229;-72
2023/10/14 01:13:14;;;;;;;2.07;0.97;;;;;15.80;99613.00;;;;5024329;28;20722;-73
2023/10/14 01:16:08;;;;;;;1.07;0.80;;;;;15.70;99619.00;;;;5015776;28;20249;-72
2023/10/14 01:18:55;;;;;;;1.10;0.90;;;;;15.60;99629.00;;;;5021778;28;20630;-72
2023/10/14 01:21:43;;;;;;;0.90;0.80;;;;;15.70;99627.00;;;;5020409;28;20797;-71
2023/10/14 01:24:34;;;;;;;2.20;0.83;;;;;15.70;99612.00;;;;5018352;28;20248;-72
2023/10/14 01:27:21;;;;;;;0.90;0.80;;;;;15.70;99608.00;;;;5021278;28;20714;-72
2023/10/14 01:30:11;;;;;;;1.63;0.80;;;;;15.70;99620.00;;;;5022416;28;20232;-72
2023/10/14 01:33:08;;;;;;;2.70;1.00;;;;;15.80;99617.00;;;;5021565;28;20612;-72
2023/10/14 01:35:55;;;;;;;2.00;0.90;;;;;15.70;99627.00;;;;5021720;28;20240;-71
2023/10/14 01:38:48;;;;;;;0.80;0.70;;;;;15.70;99622.00;;;;5018261;28;20743;-70
2023/10/14 01:41:36;;;;;;;2.10;0.90;;;;;15.70;99627.00;;;;5018520;28;20710;-72
2023/10/14 01:44:22;;;;;;;3.20;0.90;;;;;15.70;99639.00;;;;5024334;28;20237;-71
2023/10/14 01:47:09;;;;;;;0.80;0.60;;;;;15.70;99643.00;;;;5022716;28;20234;-71
2023/10/14 01:49:59;;;;;;;1.60;0.87;;;;;15.70;99643.00;;;;5024300;28;20759;-71
2023/10/14 01:52:47;;;;;;;3.37;0.90;;;;;15.70;99642.00;;;;5026529;28;20226;-72
2023/10/14 01:55:35;;;;;;;1.40;0.70;;;;;15.70;99642.00;;;;5022618;28;20832;-71
2023/10/14 01:58:29;;;;;;;0.97;0.70;;;;;15.70;99646.00;;;;5021383;28;20440;-71
2023/10/14 02:01:17;;;;;;;2.23;0.80;;;;;15.70;99664.00;;;;5020976;28;20229;-70
2023/10/14 02:04:04;;;;;;;1.30;0.90;;;;;15.70;99684.00;;;;5024208;28;20288;-71
2023/10/14 02:07:10;;;;;;;1.10;0.90;;;;;15.80;99701.00;;;;5023550;28;20723;-70
2023/10/14 02:09:59;;;;;;;0.70;0.70;;;;;15.80;99698.00;;;;5023012;28;20604;-71
2023/10/14 02:12:49;;;;;;;1.60;0.80;;;;;15.70;99706.00;;;;5022570;28;20232;-72
2023/10/14 02:15:37;;;;;;;1.60;0.83;;;;;15.70;99712.00;;;;5015863;28;20233;-72
2023/10/14 02:18:24;;;;;;;1.83;0.80;;;;;15.70;99721.00;;;;5017372;28;20813;-71
2023/10/14 02:21:16;;;;;;;1.17;0.83;;;;;15.70;99720.00;;;;5019963;28;20225;-70
2023/10/14 02:24:04;;;;;;;0.80;0.80;;;;;15.70;99730.00;;;;5015150;28;20234;-73
2023/10/14 02:26:51;;;;;;;2.93;1.10;;;;;15.70;99745.00;;;;5013594;28;20241;-72
2023/10/14 02:29:42;;;;;;;4.73;1.20;;;;;15.80;99738.00;;;;5024932;28;20357;-71
2023/10/14 02:32:29;;;;;;;2.33;1.10;;;;;15.60;99742.00;;;;5022814;28;20719;-72
2023/10/14 02:35:16;;;;;;;1.23;1.07;;;;;15.60;99763.00;;;;5018558;28;20254;-73
2023/10/14 02:38:04;;;;;;;2.80;1.20;;;;;15.70;99780.00;;;;5022549;28;20315;-70
2023/10/14 02:40:51;;;;;;;2.50;0.93;;;;;15.60;99783.00;;;;5024763;28;20229;-71
2023/10/14 02:43:38;;;;;;;1.67;1.10;;;;;15.60;99791.00;;;;5017382;28;20233;-71
2023/10/14 02:46:25;;;;;;;0.90;0.90;;;;;15.50;99801.00;;;;5023837;28;20547;-71
2023/10/14 02:49:15;;;;;;;1.07;0.90;;;;;15.50;99809.00;;;;5024284;28;20279;-72
2023/10/14 02:52:08;;;;;;;0.90;0.90;;;;;15.50;99819.00;;;;5020529;28;20255;-72
2023/10/14 02:55:18;;;;;;;1.57;1.00;;;;;15.50;99821.00;;;;5019565;28;20234;-72
2023/10/14 02:58:04;;;;;;;3.53;1.07;;;;;15.50;99834.00;;;;5026465;28;20732;-71
2023/10/14 03:00:50;;;;;;;2.40;1.00;;;;;15.50;99838.00;;;;5020575;28;20234;-71
2023/10/14 03:03:37;;;;;;;2.60;1.07;;;;;15.50;99846.00;;;;5034445;28;20236;-72
2023/10/14 03:06:30;;;;;;;2.67;1.20;;;;;15.40;99851.00;;;;5026665;28;20365;-70
2023/10/14 03:09:18;;;;;;;1.63;1.20;;;;;15.50;99867.00;;;;5025440;28;20307;-71
2023/10/14 03:12:05;;;;;;;1.33;1.10;;;;;15.40;99874.00;;;;5029626;28;20857;-70
2023/10/14 03:14:52;;;;;;;1.87;1.20;;;;;15.40;99884.00;;;;5024887;28;20232;-70
2023/10/14 03:17:41;;;;;;;3.90;1.17;;;;;15.40;99894.00;;;;5025741;28;20297;-71
2023/10/14 03:20:42;;;;;;;4.97;1.20;;;;;15.40;99913.00;;;;5025500;28;20737;-72
2023/10/14 03:23:32;;;;;;;1.27;1.17;;;;;15.30;99912.00;;;;5024573;28;20236;-72
2023/10/14 03:26:20;;;;;;;2.70;1.17;;;;;15.30;99922.00;;;;5025642;28;20333;-73
2023/10/14 03:29:14;;;;;;;5.97;1.80;;;;;15.20;99940.00;;;;5019998;28;20609;-72
2023/10/14 03:32:02;;;;;;;3.97;1.37;;;;;15.20;99949.00;;;;5024653;28;20309;-72
2023/10/14 03:34:49;;;;;;;7.73;1.40;;;;;15.20;99957.00;;;;5025893;28;20610;-72
2023/10/14 03:37:40;;;;;;;3.67;1.30;;;;;15.20;99969.00;;;;5019311;28;20650;-73
2023/10/14 03:40:51;;;;;;;2.93;1.40;;;;;15.10;99963.00;;;;5027937;28;20277;-71
2023/10/14 03:43:44;;;;;;;2.90;1.30;;;;;15.10;99979.00;;;;5014950;28;20233;-72
2023/10/14 03:46:35;;;;;;;2.50;1.60;;;;;15.10;99975.00;;;;5018885;28;20252;-71
2023/10/14 03:49:22;;;;;;;4.27;1.53;;;;;15.00;99980.00;;;;5026481;28;20743;-70
2023/10/14 03:52:10;;;;;;;3.13;1.27;;;;;15.00;99986.00;;;;5027118;28;20239;-72
2023/10/14 03:54:56;;;;;;;3.13;1.27;;;;;15.00;99997.00;;;;5023258;28;20234;-71
2023/10/14 03:57:44;;;;;;;6.93;1.30;;;;;15.00;99998.00;;;;5027161;28;20627;-72
2023/10/14 04:00:37;;;;;;;4.27;1.47;;;;;14.90;100009.00;;;;5026450;28;20290;-74
2023/10/14 04:03:39;;;;;;;2.13;1.20;;;;;14.90;100025.00;;;;5026204;28;20243;-72
2023/10/14 04:06:26;;;;;;;6.77;1.43;;;;;14.80;100038.00;;;;5025827;28;20239;-71
2023/10/14 04:09:21;;;;;;;3.93;1.60;;;;;14.70;100036.00;;;;5028604;28;20305;-71
2023/10/14 04:12:12;;;;;;;2.37;1.30;;;;;14.80;100049.00;;;;5024290;28;20244;-73
2023/10/14 04:15:05;;;;;;;3.30;1.30;;;;;14.60;100052.00;;;;5021568;28;20277;-71
2023/10/14 04:17:55;;;;;;;5.17;1.40;;;;;14.60;100074.00;;;;5026177;28;20309;-71
2023/10/14 04:20:46;;;;;;;7.33;1.63;;;;;14.50;100077.00;;;;5018116;28;20671;-71
2023/10/14 04:23:38;;;;;;;8.50;1.83;;;;;14.40;100085.00;;;;5019711;28;20238;-71
2023/10/14 04:26:24;;;;;;;3.83;1.53;;;;;14.40;100089.00;;;;5025732;28;20736;-71
2023/10/14 04:29:21;;;;;;;3.73;1.50;;;;;14.30;100095.00;;;;5020669;28;20273;-72
2023/10/14 04:32:15;;;;;;;9.47;1.60;;;;;14.30;100103.00;;;;5021854;28;20266;-72
2023/10/14 04:35:04;;;;;;;9.03;2.07;;;;;14.20;100107.00;;;;5022885;28;20703;-71
2023/10/14 04:37:53;;;;;;;6.67;1.67;;;;;14.10;100100.00;;;;5020178;28;20365;-72
2023/10/14 04:40:41;;;;;;;1.97;1.20;;;;;14.10;100109.00;;;;5025678;28;20229;-70
2023/10/14 04:43:54;;;;;;;7.27;1.60;;;;;13.90;100115.00;;;;5025570;28;20352;-71
2023/10/14 04:46:54;;;;;;;6.50;1.40;;;;;13.90;100114.00;;;;5022320;28;20229;-71
2023/10/14 04:49:42;;;;;;;4.63;1.37;;;;;13.80;100121.00;;;;5025232;28;20723;-71
2023/10/14 04:52:28;;;;;;;6.87;1.50;;;;;13.70;100137.00;;;;5020127;28;20231;-71
2023/10/14 04:55:32;;;;;;;7.33;1.67;;;;;13.70;100145.00;;;;5020980;28;20245;-70
2023/10/14 04:58:24;;;;;;;4.40;1.40;;;;;13.70;100148.00;;;;4998316;28;20971;-72
2023/10/14 05:01:17;;;;;;;5.53;1.70;;;;;13.70;100150.00;;;;5003621;28;20292;-72
2023/10/14 05:04:08;;;;;;;5.43;1.53;;;;;13.60;100166.00;;;;5004321;28;20246;-69
2023/10/14 05:07:03;;;;;;;4.93;1.57;;;;;13.60;100171.00;;;;5008756;28;20332;-70
2023/10/14 05:09:56;;;;;;;5.93;1.83;;;;;13.50;100182.00;;;;5000089;28;20272;-69
2023/10/14 05:12:51;;;;;;;5.03;1.80;;;;;13.60;100187.00;;;;4997127;28;20277;-70
2023/10/14 05:15:43;;;;;;;4.93;1.60;;;;;13.50;100205.00;;;;5018385;28;20324;-72
2023/10/14 05:18:29;;;;;;;4.80;1.60;;;;;13.50;100209.00;;;;5004938;28;20241;-73
2023/10/14 05:21:35;;;;;;;3.23;1.67;;;;;13.40;100214.00;;;;5005601;28;20285;-70
2023/10/14 05:24:28;;;;;;;6.27;1.40;;;;;13.30;100225.00;;;;5015427;28;20352;-72
2023/10/14 05:27:17;;;;;;;7.67;1.50;;;;;13.30;100233.00;;;;5000025;28;20982;-70
2023/10/14 05:30:06;;;;;;;6.53;1.90;;;;;13.20;100234.00;;;;4999751;28;20278;-72
2023/10/14 05:32:53;;;;;;;3.30;1.57;;;;;13.20;100239.00;;;;4998553;28;20881;-72
2023/10/14 05:35:40;;;;;;;6.90;1.70;;;;;13.20;100246.00;;;;5008367;28;20316;-71
2023/10/14 05:38:26;;;;;;;6.90;1.70;;;;;13.20;100252.00;;;;5004266;28;20349;-72
2023/10/14 05:41:15;;;;;;;6.10;1.97;;;;;13.20;100241.00;;;;5009173;28;20272;-74
2023/10/14 05:44:03;;;;;;;9.40;1.83;;;;;13.20;100255.00;;;;5002055;28;20229;-72
2023/10/14 05:46:50;;;;;;;4.63;1.37;;;;;13.10;100256.00;;;;4997849;28;20230;-70
2023/10/14 05:49:36;;;;;;;7.57;1.80;;;;;13.10;100264.00;;;;5014016;28;20233;-70
2023/10/14 05:52:24;;;;;;;7.47;2.03;;;;;13.00;100259.00;;;;5005533;28;20291;-71
2023/10/14 05:55:11;;;;;;;5.23;1.63;;;;;13.00;100279.00;;;;5003079;28;20234;-72
2023/10/14 05:58:00;;;;;;;6.60;1.70;;;;;13.10;100281.00;;;;4998172;28;20256;-72
2023/10/14 06:00:51;;;;;;;2.67;1.40;;;;;13.00;100287.00;;;;5001886;28;20222;-72
2023/10/14 06:03:38;;;;;;;3.93;1.50;;;;;12.80;100298.00;;;;5011763;28;20316;-71
2023/10/14 06:06:24;;;;;;;5.20;1.40;;;;;12.80;100311.00;;;;5012917;28;20711;-70
2023/10/14 06:09:11;;;;;;;5.23;1.60;;;;;12.80;100316.00;;;;5003700;28;20307;-71
2023/10/14 06:11:58;;;;;;;3.90;1.53;;;;;12.80;100322.00;;;;4998721;28;20722;-70
2023/10/14 06:14:49;;;;;;;9.27;2.03;;;;;12.80;100335.00;;;;5013451;28;20343;-72
2023/10/14 06:17:38;;;;;;;5.00;1.70;;;;;12.80;100335.00;;;;5002057;28;20233;-72
2023/10/14 06:20:25;;;;;;;3.70;1.40;;;;;12.80;100334.00;;;;5003942;28;20229;-67
2023/10/14 06:23:12;;;;;;;10.60;1.73;;;;;12.80;100344.00;;;;5013062;28;20237;-69
2023/10/14 06:25:58;;;;;;;5.10;1.93;;;;;12.90;100348.00;;;;5006868;28;20832;-68
2023/10/14 06:28:45;;;;;;;9.53;1.70;;;;;13.00;100349.00;;;;5003118;28;20358;-68
2023/10/14 06:31:37;;;;;;;5.60;1.80;;;;;13.00;100359.00;;;;5001311;28;20230;-67
2023/10/14 06:34:26;;;;;;;9.43;2.13;;;;;13.00;100359.00;;;;5008327;28;20253;-70
2023/10/14 06:37:13;;;;;;;6.90;1.70;;;;;13.00;100366.00;;;;5005952;28;20244;-68
2023/10/14 06:39:59;;;;;;;6.13;1.40;;;;;13.00;100376.00;;;;4998047;28;20266;-69
2023/10/14 06:42:49;;;;;;;4.33;1.80;;;;;13.10;100382.00;;;;5005255;28;20237;-70
2023/10/14 06:45:36;;;;;;;4.27;1.43;;;;;13.10;100387.00;;;;5009549;28;20249;-68
2023/10/14 06:48:23;;;;;;;9.00;1.70;;;;;13.20;100392.00;;;;5007008;28;20705;-69
2023/10/14 06:51:10;;;;;;;5.63;1.80;;;;;13.20;100399.00;;;;5002906;28;20249;-68
2023/10/14 06:53:56;;;;;;;5.57;1.90;;;;;13.20;100408.00;;;;5000097;28;20396;-69
2023/10/14 06:56:44;;;;;;;6.80;1.70;;;;;13.20;100417.00;;;;5011446;28;20226;-69
2023/10/14 06:59:31;;;;;;;7.20;1.73;;;;;13.20;100421.00;;;;5006632;28;20706;-70
2023/10/14 07:02:18;;;;;;;3.57;1.50;;;;;13.20;100427.00;;;;5008162;28;20230;-69
2023/10/14 07:05:09;;;;;;;6.70;1.60;;;;;13.20;100433.00;;;;5009332;28;20241;-70
2023/10/14 07:07:57;;;;;;;7.33;1.60;;;;;13.30;100437.00;;;;5010932;28;20307;-69
2023/10/14 07:10:47;;;;;;;6.30;1.70;;;;;13.20;100441.00;;;;5011255;28;20730;-67
2023/10/14 07:13:33;;;;;;;6.60;1.47;;;;;13.20;100449.00;;;;5004224;28;20237;-68
2023/10/14 07:16:20;;;;;;;8.97;1.70;;;;;13.30;100454.00;;;;5007467;28;20226;-72
2023/10/14 07:19:06;;;;;;;6.33;1.60;;;;;13.40;100449.00;;;;5005982;28;20795;-73
2023/10/14 07:21:55;;;;;;;5.53;1.87;;;;;13.40;100460.00;;;;5025632;28;20226;-73
2023/10/14 07:24:42;;;;;;;7.20;1.67;;;;;13.40;100449.00;;;;5023947;28;20303;-72
2023/10/14 07:27:29;;;;;;;5.40;1.90;;;;;13.40;100454.00;;;;5022502;28;20370;-73
2023/10/14 07:30:15;;;;;;;3.60;1.80;;;;;13.40;100459.00;;;;5011536;28;20312;-73
2023/10/14 07:33:05;;;;;;;4.77;1.67;;;;;13.40;100455.00;;;;5015748;28;20233;-69
2023/10/14 07:35:51;;;;;;;5.87;1.60;;;;;13.40;100463.00;;;;5020978;28;20616;-73
2023/10/14 07:38:42;;;;;;;6.30;1.80;;;;;13.50;100465.00;;;;5026838;28;20233;-70
2023/10/14 07:41:29;;;;;;;5.93;1.67;;;;;13.50;100471.00;;;;5023999;28;20311;-73
2023/10/14 07:44:17;;;;;;;7.87;1.90;;;;;13.60;100476.00;;;;5021253;28;20329;-73
2023/10/14 07:47:05;;;;;;;9.10;1.80;;;;;13.60;100486.00;;;;5026910;28;20312;-72
2023/10/14 07:49:54;;;;;;;10.83;2.17;;;;;13.70;100476.00;;;;5026596;28;20295;-72
2023/10/14 07:52:41;;;;;;;12.07;1.50;;;;;13.70;100499.00;;;;5019723;28;20226;-72
2023/10/14 07:55:32;;;;;;;6.20;1.80;;;;;13.80;100498.00;;;;5023308;28;20249;-72
2023/10/14 07:58:23;;;;;;;7.07;1.80;;;;;13.80;100511.00;;;;5020639;28;20324;-73
2023/10/14 08:01:16;;;;;;;14.03;2.07;;;;;13.80;100512.00;;;;5020512;28;20225;-72
2023/10/14 08:04:06;;;;;;;9.43;1.90;;;;;13.80;100508.00;;;;5026183;28;20278;-74
2023/10/14 08:06:53;;;;;;;4.87;1.53;;;;;13.80;100520.00;;;;5019700;28;20223;-73
2023/10/14 08:09:40;;;;;;;6.30;1.80;;;;;13.90;100521.00;;;;5025032;28;20627;-72
2023/10/14 08:12:29;;;;;;;4.40;1.90;;;;;13.90;100530.00;;;;5022749;28;20330;-72
2023/10/14 08:15:17;;;;;;;9.70;2.00;;;;;13.90;100529.00;;;;5019653;28;20815;-71
2023/10/14 08:18:05;;;;;;;8.03;1.87;;;;;14.00;100547.00;;;;5018172;28;20229;-72
2023/10/14 08:20:53;;;;;;;5.57;1.80;;;;;14.10;100547.00;;;;5024438;28;20237;-72
2023/10/14 08:23:39;;;;;;;5.20;1.63;;;;;14.10;100542.00;;;;5025427;28;20233;-72
2023/10/14 08:26:26;;;;;;;9.37;1.70;;;;;14.10;100556.00;;;;5026215;28;20295;-72
2023/10/14 08:29:13;;;;;;;8.60;1.83;;;;;14.10;100546.00;;;;5018836;28;20252;-73
2023/10/14 08:32:00;;;;;;;13.20;1.70;;;;;14.00;100552.00;;;;5024495;28;20234;-71
2023/10/14 08:34:46;;;;;;;11.50;1.87;;;;;14.10;100550.00;;;;5022751;28;20229;-70
2023/10/14 08:37:34;;;;;;;9.60;1.73;;;;;14.30;100565.00;;;;5025719;28;20316;-71
2023/10/14 08:40:22;;;;;;;5.80;1.30;;;;;14.40;100558.00;;;;5024719;28;20772;-71
2023/10/14 08:43:10;;;;;;;8.03;2.00;;;;;14.40;100568.00;;;;5021040;28;20428;-71
2023/10/14 08:45:59;;;;;;;5.97;1.90;;;;;14.50;100567.00;;;;5025619;28;20228;-70
2023/10/14 08:48:50;;;;;;;12.03;2.00;;;;;14.50;100569.00;;;;5022805;28;20730;-72
2023/10/14 08:51:39;;;;;;;11.27;2.80;;;;;14.50;100570.00;;;;5024798;28;20762;-73
2023/10/14 08:54:42;;;;;;;12.50;2.00;;;;;14.50;100576.00;;;;5021342;28;20238;-71
2023/10/14 08:57:29;;;;;;;9.47;1.90;;;;;14.50;100571.00;;;;5020923;28;20229;-71
2023/10/14 09:00:20;;;;;;;7.87;2.10;;;;;14.60;100572.00;;;;5014925;28;20241;-71
2023/10/14 09:03:09;;;;;;;9.63;1.80;;;;;14.60;100571.00;;;;5023856;28;20343;-73
2023/10/14 09:05:56;;;;;;;11.83;1.80;;;;;14.80;100575.00;;;;5022972;28;20389;-71
2023/10/14 09:08:44;;;;;;;5.27;1.77;;;;;14.80;100582.00;;;;5025619;28;20235;-71
2023/10/14 09:11:33;;;;;;;7.10;1.73;;;;;15.00;100587.00;;;;5019301;28;20238;-71
2023/10/14 09:14:20;;;;;;;6.93;1.80;;;;;14.90;100594.00;;;;5021131;28;20872;-71
2023/10/14 09:17:09;;;;;;;7.00;1.73;;;;;14.80;100589.00;;;;5022872;28;20239;-72
2023/10/14 09:19:57;;;;;;;6.70;1.90;;;;;14.90;100599.00;;;;5019422;28;20606;-71
2023/10/14 09:22:47;;;;;;;9.37;1.60;;;;;14.90;100593.00;;;;5021465;28;20345;-72
2023/10/14 09:25:33;;;;;;;6.30;1.80;;;;;14.90;100606.00;;;;5016905;28;20234;-71
2023/10/14 09:28:22;;;;;;;10.87;1.70;;;;;15.00;100609.00;;;;5019484;28;20308;-74
2023/10/14 09:31:10;;;;;;;11.90;1.93;;;;;15.00;100613.00;;;;5017819;28;20268;-71
2023/10/14 09:33:57;;;;;;;6.80;1.77;;;;;15.10;100609.00;;;;5022434;28;20234;-71
2023/10/14 09:36:45;;;;;;;9.53;1.70;;;;;15.20;100603.00;;;;5022789;28;20297;-72
2023/10/14 09:39:33;;;;;;;5.07;1.87;;;;;15.20;100618.00;;;;5019470;28;20370;-74
2023/10/14 09:42:22;;;;;;;8.47;1.80;;;;;15.30;100613.00;;;;5017824;28;20247;-72
2023/10/14 09:45:11;;;;;;;8.47;2.00;;;;;15.40;100624.00;;;;5021407;28;20239;-72
2023/10/14 09:47:59;;;;;;;5.10;1.50;;;;;15.50;100617.00;;;;5017357;28;20242;-71
2023/10/14 09:50:47;;;;;;;9.23;1.80;;;;;15.60;100627.00;;;;5025515;28;20304;-71
2023/10/14 09:53:36;;;;;;;9.43;1.97;;;;;15.70;100624.00;;;;5022159;28;20237;-73
2023/10/14 09:56:23;;;;;;;6.43;2.10;;;;;15.80;100633.00;;;;5019568;28;20727;-72
2023/10/14 09:59:28;;;;;;;11.07;1.67;;;;;15.80;100642.00;;;;5016263;28;20354;-71
2023/10/14 10:02:15;;;;;;;4.60;1.53;;;;;15.80;100632.00;;;;5017037;28;20228;-71
2023/10/14 10:05:03;;;;;;;6.43;1.43;;;;;15.80;100638.00;;;;5019025;28;20613;-71
2023/10/14 10:08:01;;;;;;;8.90;1.90;;;;;15.80;100643.00;;;;5025505;28;20332;-68
2023/10/14 10:10:51;;;;;;;6.93;1.80;;;;;15.60;100645.00;;;;5022001;28;20226;-71
2023/10/14 10:13:39;;;;;;;12.20;2.03;;;;;15.90;100657.00;;;;5025952;28;20256;-72
2023/10/14 10:16:30;;;;;;;11.27;1.60;;;;;16.00;100655.00;;;;5022380;28;20236;-72
2023/10/14 10:19:17;;;;;;;12.33;1.67;;;;;16.10;100659.00;;;;5026055;28;20296;-74
2023/10/14 10:22:14;;;;;;;10.03;1.80;;;;;16.10;100653.00;;;;5017452;28;20751;-72
2023/10/14 10:25:00;;;;;;;6.27;1.77;;;;;16.00;100665.00;;;;5006265;28;20233;-72
2023/10/14 10:27:49;;;;;;;10.63;1.67;;;;;15.90;100657.00;;;;5005232;28;20236;-73
2023/10/14 10:30:46;;;;;;;4.37;1.67;;;;;15.80;100675.00;;;;5010934;28;20237;-73
2023/10/14 10:33:52;;;;;;;7.07;1.80;;;;;15.70;100680.00;;;;5024746;28;20233;-73
2023/10/14 10:36:39;;;;;;;8.17;2.23;;;;;15.60;100676.00;;;;5026010;28;20241;-72
2023/10/14 10:39:26;;;;;;;12.27;1.90;;;;;15.80;100684.00;;;;5022490;28;20233;-71
2023/10/14 10:42:12;;;;;;;6.70;1.73;;;;;15.70;100670.00;;;;5026348;28;20890;-72
2023/10/14 10:45:00;;;;;;;8.30;1.90;;;;;15.60;100678.00;;;;5024854;28;20316;-70
2023/10/14 10:47:51;;;;;;;5.23;1.70;;;;;15.60;100690.00;;;;5023190;28;20228;-71
2023/10/14 10:50:40;;;;;;;9.53;1.70;;;;;15.80;100683.00;;;;5022439;28;20237;-71
2023/10/14 10:53:27;;;;;;;11.17;1.97;;;;;16.10;100685.00;;;;5017031;28;20241;-72
2023/10/14 10:56:14;;;;;;;6.37;1.53;;;;;16.10;100694.00;;;;5026738;28;20227;-72
2023/10/14 10:59:01;;;;;;;12.27;1.90;;;;;16.00;100680.00;;;;5024958;28;20715;-72
2023/10/14 11:01:54;;;;;;;9.30;1.83;;;;;16.00;100686.00;;;;5016966;28;20607;-72
2023/10/14 11:04:42;;;;;;;5.03;1.57;;;;;16.00;100686.00;;;;5020747;28;20234;-71
2023/10/14 11:07:32;;;;;;;7.07;1.90;;;;;16.20;100702.00;;;;5018409;28;20237;-73
2023/10/14 11:10:22;;;;;;;9.53;1.93;;;;;16.30;100686.00;;;;5026168;28;20706;-71
2023/10/14 11:13:08;;;;;;;6.90;1.60;;;;;16.30;100690.00;;;;5025438;28;20311;-70
2023/10/14 11:15:54;;;;;;;5.63;1.40;;;;;16.10;100706.00;;;;5019144;28;20233;-70
2023/10/14 11:18:49;;;;;;;4.37;1.60;;;;;16.20;100696.00;;;;5023687;28;20241;-72
2023/10/14 11:21:37;;;;;;;7.87;1.97;;;;;16.40;100704.00;;;;5003107;28;21049;-70
2023/10/14 11:24:24;;;;;;;9.97;1.87;;;;;16.50;100704.00;;;;5013339;28;20250;-72
2023/10/14 11:27:10;;;;;;;8.30;1.50;;;;;16.10;100692.00;;;;5017098;28;20356;-70
2023/10/14 11:29:57;;;;;;;10.43;1.53;;;;;16.00;100691.00;;;;5019952;28;20252;-73
2023/10/14 11:32:47;;;;;;;10.50;1.60;;;;;15.90;100691.00;;;;5027356;28;20229;-72
2023/10/14 11:35:37;;;;;;;5.20;1.53;;;;;15.60;100684.00;;;;5020154;28;20721;-73
2023/10/14 11:38:26;;;;;;;6.47;1.53;;;;;15.50;100695.00;;;;5024827;28;20222;-72
2023/10/14 11:41:12;;;;;;;6.00;1.47;;;;;15.30;100689.00;;;;5031009;28;20237;-74
2023/10/14 11:44:04;;;;;;;5.07;1.63;;;;;15.40;100703.00;;;;5023431;28;20787;-74
2023/10/14 11:46:51;;;;;;;5.83;1.30;;;;;15.30;100709.00;;;;5022555;28;20235;-75
2023/10/14 11:49:37;;;;;;;5.00;1.63;;;;;15.30;100698.00;;;;5026593;28;20244;-73
2023/10/14 11:52:25;;;;;;;7.23;1.83;;;;;15.50;100694.00;;;;5018875;28;20225;-72
2023/10/14 11:55:14;;;;;;;5.90;1.40;;;;;15.90;100697.00;;;;5021616;28;20229;-75
2023/10/14 11:58:00;;;;;;;6.33;1.40;;;;;16.20;100688.00;;;;5023536;28;20319;-71
2023/10/14 12:00:47;;;;;;;5.33;1.60;;;;;16.60;100686.00;;;;5026867;28;20638;-74
2023/10/14 12:03:34;;;;;;;6.27;1.73;;;;;16.80;100685.00;;;;5014191;28;20311;-72
2023/10/14 12:06:20;;;;;;;6.67;1.80;;;;;17.10;100698.00;;;;5033449;28;20237;-70
2023/10/14 12:09:10;;;;;;;3.70;1.20;;;;;17.10;100701.00;;;;5028258;28;20229;-71
2023/10/14 12:11:57;;;;;;;5.83;1.50;;;;;16.90;100731.00;;;;5021937;28;20229;-70
2023/10/14 12:14:43;;;;;;;7.60;1.40;;;;;16.00;100762.00;;;;5025046;28;20233;-72
2023/10/14 12:17:30;;;;;;;3.00;1.27;;;;;15.50;100752.00;;;;5018729;28;20222;-72
2023/10/14 12:20:16;;;;;;;4.03;1.13;;;;;15.10;100746.00;;;;5023230;28;20228;-72
2023/10/14 12:23:03;;;;;;;4.43;1.50;;;;;15.00;100739.00;;;;5025728;28;20237;-73
2023/10/14 12:25:51;;;;;;;3.53;1.10;;;;;14.80;100740.00;;;;5023834;28;20429;-71
2023/10/14 12:28:37;;;;;;;2.43;1.30;;;;;14.90;100744.00;;;;5018947;28;20791;-73
2023/10/14 12:31:25;;;;;;;2.80;1.50;;;;;15.00;100750.00;;;;5025043;28;20229;-71
2023/10/14 12:34:11;;;;;;;4.07;1.30;;;;;15.00;100746.00;;;;5025634;28;20235;-71
2023/10/14 12:36:58;;;;;;;7.07;1.20;;;;;15.10;100738.00;;;;5021727;28;20233;-71
2023/10/14 12:39:49;;;;;;;3.47;1.77;;;;;15.40;100752.00;;;;5016588;28;20636;-73
2023/10/14 12:42:46;;;;;;;5.27;1.20;;;;;15.40;100750.00;;;;5010493;28;20288;-73
2023/10/14 12:45:34;;;;;;;2.40;1.07;;;;;15.50;100751.00;;;;5018663;28;20240;-73
2023/10/14 12:48:24;;;;;;;6.20;1.20;;;;;15.60;100759.00;;;;5025239;28;20280;-72
2023/10/14 12:51:12;;;;;;;3.73;1.27;;;;;15.80;100755.00;;;;5023579;28;20235;-73
2023/10/14 12:54:00;;;;;;;4.70;1.20;;;;;15.90;100754.00;;;;5025368;28;20238;-74
2023/10/14 12:56:50;;;;;;;3.17;1.23;;;;;15.90;100742.00;;;;5025638;28;20314;-72
2023/10/14 12:59:40;;;;;;;4.90;1.37;;;;;16.10;100757.00;;;;5017730;28;20312;-70
2023/10/14 13:02:26;;;;;;;1.40;1.00;;;;;16.10;100748.00;;;;5021720;28;20234;-71
2023/10/14 13:05:18;;;;;;;2.67;1.30;;;;;16.00;100746.00;;;;5022163;28;20602;-70
2023/10/14 13:08:05;;;;;;;5.80;1.17;;;;;16.30;100748.00;;;;5025358;28;20288;-71
2023/10/14 13:10:52;;;;;;;6.13;1.43;;;;;16.10;100747.00;;;;5020599;28;20602;-72
2023/10/14 13:13:39;;;;;;;3.83;1.10;;;;;16.00;100758.00;;;;5019506;28;20613;-72
2023/10/14 13:16:27;;;;;;;5.80;1.30;;;;;16.00;100757.00;;;;5025399;28;20284;-71
2023/10/14 13:19:14;;;;;;;4.80;1.27;;;;;15.80;100756.00;;;;5015988;28;20243;-71
2023/10/14 13:22:00;;;;;;;8.63;1.50;;;;;15.70;100759.00;;;;5024549;28;20234;-69
2023/10/14 13:24:50;;;;;;;8.13;1.50;;;;;15.80;100759.00;;;;5017536;28;20691;-72
2023/10/14 13:27:37;;;;;;;7.07;1.40;;;;;15.70;100767.00;;;;5017384;28;20228;-71
2023/10/14 13:30:23;;;;;;;3.40;1.20;;;;;15.40;100782.00;;;;5024476;28;20228;-72
2023/10/14 13:33:12;;;;;;;6.43;1.40;;;;;15.40;100778.00;;;;5024689;28;20235;-70
2023/10/14 13:35:59;;;;;;;4.70;1.40;;;;;15.40;100786.00;;;;5019263;28;21008;-71
2023/10/14 13:38:45;;;;;;;4.23;1.13;;;;;15.30;100765.00;;;;5029456;28;20226;-71
2023/10/14 13:41:33;;;;;;;3.00;1.20;;;;;15.60;100779.00;;;;5023738;28;20426;-72
2023/10/14 13:44:22;;;;;;;4.33;1.10;;;;;15.50;100782.00;;;;5022760;28;20241;-70
2023/10/14 13:47:08;;;;;;;4.60;1.30;;;;;15.40;100775.00;;;;5020911;28;20238;-70
2023/10/14 13:49:58;;;;;;;3.10;1.03;;;;;15.50;100786.00;;;;5023497;28;20227;-70
2023/10/14 13:52:51;;;;;;;5.77;1.37;;;;;15.40;100780.00;;;;5020401;28;20270;-70
2023/10/14 13:55:38;;;;;;;6.97;1.30;;;;;15.30;100792.00;;;;5019618;28;20331;-71
2023/10/14 13:58:25;;;;;;;7.73;1.20;;;;;15.30;100788.00;;;;5024040;28;20235;-69